Time;durP1;ratioP1;P1;durP2;ratioP2;P2;SDS_P1;SDS_P2;PMS_P1;PMS_P2;Temp;Humidity;BMP_temperature;BMP_pressure;BME280_temperature;BME280_humidity;BME280_pressure;Samples;Min_cycle;Max_cycle;Signal;HPM_P1;HPM_P2
2022/09/24 00:02:16;;;;;;;0.90;0.77;;;23.30;56.80;;;;;;6162882;28;20037;-49
2022/09/24 00:05:18;;;;;;;0.80;0.73;;;23.30;56.80;;;;;;6146118;28;20042;-51
2022/09/24 00:08:20;;;;;;;1.05;0.70;;;23.20;56.80;;;;;;6159425;28;21129;-50
2022/09/24 00:11:23;;;;;;;0.73;0.70;;;23.10;56.70;;;;;;6164468;28;20149;-51
2022/09/24 00:14:24;;;;;;;0.88;0.70;;;23.40;56.90;;;;;;6150939;28;20148;-50
2022/09/24 00:17:26;;;;;;;0.88;0.80;;;23.30;56.90;;;;;;6159969;28;20057;-49
2022/09/24 00:20:29;;;;;;;0.65;0.60;;;23.10;57.30;;;;;;6159171;28;20107;-48
2022/09/24 00:23:30;;;;;;;1.52;0.63;;;23.20;56.80;;;;;;6162726;28;20137;-51
2022/09/24 00:29:45;;;;;;;0.85;0.80;;;23.20;56.80;;;;;;6160159;28;20041;-52
2022/09/24 00:32:47;;;;;;;;;;;23.40;56.90;;;;;;6160014;28;20054;-53
2022/09/24 00:35:48;;;;;;;0.77;0.63;;;23.00;56.70;;;;;;6161760;28;19929;-52
2022/09/24 00:38:52;;;;;;;0.80;0.50;;;23.20;56.80;;;;;;6164221;28;20081;-49
2022/09/24 00:41:53;;;;;;;1.10;0.77;;;23.00;56.60;;;;;;6145743;28;20045;-52
2022/09/24 00:44:56;;;;;;;0.68;0.60;;;23.20;56.70;;;;;;6166779;28;20042;-52
2022/09/24 00:47:58;;;;;;;0.80;0.60;;;23.30;56.70;;;;;;6162997;28;20172;-50
2022/09/24 00:51:00;;;;;;;0.90;0.65;;;23.20;56.70;;;;;;6164592;28;20117;-52
2022/09/24 00:54:05;;;;;;;0.90;0.73;;;23.10;56.60;;;;;;6162709;28;20172;-51
2022/09/24 00:57:07;;;;;;;0.88;0.60;;;23.00;56.60;;;;;;6145436;28;20054;-53
2022/09/24 01:00:09;;;;;;;0.88;0.70;;;23.00;56.60;;;;;;6163548;28;20123;-52
2022/09/24 01:03:14;;;;;;;0.63;0.60;;;23.30;56.70;;;;;;6162388;28;20050;-49
2022/09/24 01:06:16;;;;;;;0.70;0.55;;;23.00;56.50;;;;;;6147408;28;21163;-48
2022/09/24 01:09:17;;;;;;;;;;;23.20;56.70;;;;;;6165976;28;20038;-50
2022/09/24 01:12:28;;;;;;;0.70;0.57;;;23.10;56.70;;;;;;6167431;28;20056;-47
2022/09/24 01:15:36;;;;;;;0.50;0.40;;;23.20;56.60;;;;;;6154092;28;20112;-48
2022/09/24 01:18:43;;;;;;;1.00;0.60;;;22.90;56.50;;;;;;6132692;28;20047;-47
2022/09/24 01:21:52;;;;;;;0.73;0.60;;;23.40;56.70;;;;;;6156854;28;20489;-47
2022/09/24 01:25:00;;;;;;;0.50;0.50;;;22.90;56.50;;;;;;6137701;28;20054;-46
2022/09/24 01:28:22;;;;;;;0.77;0.60;;;23.30;56.70;;;;;;6133428;28;20045;-48
2022/09/24 01:31:32;;;;;;;0.50;0.50;;;23.20;56.60;;;;;;6149911;28;20314;-48
2022/09/24 01:34:40;;;;;;;0.70;0.60;;;23.40;56.70;;;;;;6151281;28;20050;-48
2022/09/24 01:37:47;;;;;;;0.90;0.60;;;23.00;56.50;;;;;;6116784;28;20500;-50
2022/09/24 01:40:50;;;;;;;0.57;0.57;;;23.20;56.70;;;;;;6150134;28;20056;-49
2022/09/24 01:43:52;;;;;;;0.60;0.55;;;23.20;56.60;;;;;;6150123;28;20069;-48
2022/09/24 01:46:55;;;;;;;0.40;0.40;;;23.20;56.60;;;;;;6150383;28;20092;-48
2022/09/24 01:49:56;;;;;;;0.70;0.50;;;23.10;56.60;;;;;;6156306;28;20061;-48
2022/09/24 01:53:01;;;;;;;;;;;23.20;57.20;;;;;;6156964;28;20329;-49
2022/09/24 01:56:08;;;;;;;0.50;0.50;;;23.70;56.90;;;;;;6139829;28;19925;-47
2022/09/24 01:59:14;;;;;;;1.05;0.70;;;23.20;56.60;;;;;;6142657;28;20178;-48
2022/09/24 02:02:22;;;;;;;0.45;0.43;;;23.10;56.60;;;;;;6154859;28;20431;-48
2022/09/24 02:05:32;;;;;;;0.60;0.50;;;23.20;56.70;;;;;;6153988;28;20465;-49
2022/09/24 02:08:38;;;;;;;0.77;0.60;;;23.10;56.60;;;;;;6151080;28;20286;-47
2022/09/24 02:11:40;;;;;;;0.40;0.40;;;23.20;56.70;;;;;;6133444;28;20119;-48
2022/09/24 02:14:45;;;;;;;0.57;0.40;;;22.70;56.40;;;;;;6151476;28;20321;-49
2022/09/24 02:17:52;;;;;;;0.50;0.43;;;23.00;56.50;;;;;;6127057;28;20211;-48
2022/09/24 02:20:55;;;;;;;0.40;0.40;;;22.90;56.40;;;;;;6148455;28;20502;-48
2022/09/24 02:24:05;;;;;;;0.43;0.40;;;23.10;56.60;;;;;;6150779;28;20535;-49
2022/09/24 02:27:06;;;;;;;0.60;0.40;;;22.90;56.50;;;;;;6153634;28;20460;-48
2022/09/24 02:30:09;;;;;;;0.50;0.50;;;22.80;56.40;;;;;;6148399;28;21479;-47
2022/09/24 02:36:30;;;;;;;0.32;0.32;;;23.10;56.50;;;;;;6120621;28;20048;-50
2022/09/24 02:39:32;;;;;;;0.50;0.50;;;22.90;56.40;;;;;;6152806;28;20067;-47
2022/09/24 02:42:34;;;;;;;0.40;0.40;;;22.80;56.40;;;;;;6134955;28;20092;-47
2022/09/24 02:45:35;;;;;;;0.45;0.45;;;23.20;56.60;;;;;;6155069;28;20038;-47
2022/09/24 02:48:37;;;;;;;;;;;23.10;56.60;;;;;;6148563;28;20157;-48
2022/09/24 02:51:39;;;;;;;0.50;0.40;;;23.20;56.60;;;;;;6149009;28;20184;-49
2022/09/24 02:54:41;;;;;;;0.50;0.47;;;23.20;56.60;;;;;;6149481;28;20123;-46
2022/09/24 02:57:43;;;;;;;0.45;0.40;;;22.80;56.40;;;;;;6152766;28;20489;-46
2022/09/24 03:00:44;;;;;;;0.40;0.30;;;23.30;56.70;;;;;;6152739;28;20326;-49
2022/09/24 03:03:47;;;;;;;0.93;0.50;;;22.80;56.50;;;;;;6152234;28;20049;-46
2022/09/24 03:06:48;;;;;;;0.52;0.40;;;23.20;56.70;;;;;;6151945;28;20060;-49
2022/09/24 03:09:49;;;;;;;;;;;23.20;56.70;;;;;;6153794;28;20593;-46
2022/09/24 03:12:51;;;;;;;0.60;0.45;;;23.00;56.60;;;;;;6154191;28;19983;-48
2022/09/24 03:15:53;;;;;;;0.30;0.30;;;22.80;56.40;;;;;;6156535;28;20609;-49
2022/09/24 03:18:58;;;;;;;0.35;0.35;;;23.00;56.60;;;;;;6151753;28;20157;-46
2022/09/24 03:22:00;;;;;;;0.30;0.30;;;22.70;56.40;;;;;;6134142;28;20271;-48
2022/09/24 03:25:04;;;;;;;;;;;22.90;56.60;;;;;;6151113;28;20120;-49
2022/09/24 03:28:06;;;;;;;0.40;0.30;;;22.70;56.50;;;;;;6156393;28;19932;-51
2022/09/24 03:31:07;;;;;;;;;;;23.00;56.60;;;;;;6164584;28;20046;-48
2022/09/24 03:34:12;;;;;;;0.35;0.30;;;22.90;56.60;;;;;;6157641;28;19929;-48
2022/09/24 03:37:14;;;;;;;0.40;0.35;;;23.20;56.70;;;;;;6157072;28;20131;-54
2022/09/24 03:40:15;;;;;;;0.40;0.40;;;22.80;56.50;;;;;;6159290;28;20046;-48
2022/09/24 03:43:17;;;;;;;0.43;0.30;;;23.10;56.70;;;;;;6152222;28;20361;-49
2022/09/24 03:46:19;;;;;;;0.30;0.20;;;22.90;56.70;;;;;;6151907;28;20750;-47
2022/09/24 03:49:22;;;;;;;0.50;0.50;;;22.90;56.60;;;;;;6119978;28;20374;-46
2022/09/24 03:52:24;;;;;;;0.38;0.35;;;22.90;56.70;;;;;;6147441;28;20080;-46
2022/09/24 03:55:26;;;;;;;0.40;0.38;;;22.80;56.60;;;;;;6153820;28;20576;-50
2022/09/24 03:58:28;;;;;;;0.40;0.40;;;23.10;56.80;;;;;;6152768;28;20038;-48
2022/09/24 04:01:31;;;;;;;0.30;0.30;;;23.00;56.70;;;;;;6151840;28;20614;-50
2022/09/24 04:04:37;;;;;;;0.40;0.40;;;23.10;56.80;;;;;;6146409;28;20213;-47
2022/09/24 04:07:38;;;;;;;0.30;0.30;;;23.20;56.80;;;;;;6132954;28;20050;-48
2022/09/24 04:10:39;;;;;;;;;;;23.10;56.80;;;;;;6145224;28;20396;-46
2022/09/24 04:13:41;;;;;;;0.38;0.30;;;22.90;57.30;;;;;;6146470;28;20044;-51
2022/09/24 04:16:42;;;;;;;;;;;22.70;56.60;;;;;;6146823;28;20152;-47
2022/09/24 04:19:50;;;;;;;0.40;0.40;;;23.00;56.80;;;;;;6141474;28;20772;-47
2022/09/24 04:22:53;;;;;;;0.40;0.40;;;23.00;56.80;;;;;;6146422;28;20198;-47
2022/09/24 04:25:55;;;;;;;0.40;0.30;;;23.10;56.80;;;;;;6127819;28;20439;-50
2022/09/24 04:28:57;;;;;;;0.57;0.30;;;23.10;56.80;;;;;;6146237;28;20745;-47
2022/09/24 04:31:59;;;;;;;0.30;0.30;;;23.20;56.90;;;;;;6142187;28;20069;-47
2022/09/24 04:35:01;;;;;;;0.32;0.32;;;23.00;56.80;;;;;;6144144;28;20427;-49
2022/09/24 04:38:08;;;;;;;0.30;0.30;;;23.10;56.80;;;;;;6148852;28;20084;-47
2022/09/24 04:41:11;;;;;;;0.40;0.32;;;23.30;56.90;;;;;;6148748;28;20042;-46
2022/09/24 04:44:14;;;;;;;0.35;0.35;;;23.00;56.80;;;;;;6150967;28;20491;-46
2022/09/24 04:47:16;;;;;;;0.40;0.40;;;23.10;56.80;;;;;;6143909;28;20153;-48
2022/09/24 04:50:19;;;;;;;0.45;0.40;;;22.70;56.60;;;;;;6143131;28;20049;-46
2022/09/24 04:53:24;;;;;;;0.30;0.30;;;22.80;56.60;;;;;;6147312;28;20046;-49
2022/09/24 04:56:25;;;;;;;;;;;23.20;56.90;;;;;;6145987;28;20046;-46
2022/09/24 04:59:27;;;;;;;0.25;0.20;;;22.70;56.70;;;;;;6143535;28;20538;-49
2022/09/24 05:02:28;;;;;;;;;;;23.20;56.90;;;;;;6147649;28;21229;-49
2022/09/24 05:05:31;;;;;;;0.50;0.30;;;22.70;56.70;;;;;;6145658;28;20273;-47
2022/09/24 05:08:33;;;;;;;0.52;0.52;;;22.90;56.70;;;;;;6150854;28;20061;-46
2022/09/24 05:11:34;;;;;;;;;;;22.80;56.70;;;;;;6149054;28;20052;-47
2022/09/24 05:14:35;;;;;;;0.20;0.20;;;22.70;56.70;;;;;;6143488;28;20609;-49
2022/09/24 05:17:38;;;;;;;0.40;0.40;;;23.10;56.80;;;;;;6146480;28;20589;-45
2022/09/24 05:20:43;;;;;;;0.45;0.40;;;23.20;57.50;;;;;;6144971;28;20177;-48
2022/09/24 05:23:44;;;;;;;0.80;0.50;;;23.10;56.90;;;;;;6146819;28;20172;-50
2022/09/24 05:30:04;;;;;;;0.40;0.40;;;22.70;56.70;;;;;;6148371;28;19930;-46
2022/09/24 05:33:06;;;;;;;0.75;0.50;;;22.60;56.60;;;;;;6142198;28;20162;-51
2022/09/24 05:36:11;;;;;;;0.50;0.30;;;22.50;56.50;;;;;;6153066;28;20108;-48
2022/09/24 05:39:13;;;;;;;0.80;0.50;;;23.00;56.80;;;;;;6146832;28;20469;-48
2022/09/24 05:42:15;;;;;;;0.40;0.40;;;23.10;56.90;;;;;;6148083;28;20687;-48
2022/09/24 05:45:16;;;;;;;0.30;0.30;;;22.90;56.80;;;;;;6148248;28;20324;-48
2022/09/24 05:48:18;;;;;;;0.20;0.20;;;22.90;56.70;;;;;;6148802;28;20598;-49
2022/09/24 05:51:20;;;;;;;;;;;22.80;56.70;;;;;;6146585;28;20560;-46
2022/09/24 05:54:21;;;;;;;0.30;0.30;;;23.20;56.90;;;;;;6149475;28;20123;-47
2022/09/24 05:57:22;;;;;;;;;;;23.00;56.70;;;;;;6151068;28;20073;-48
2022/09/24 06:00:24;;;;;;;0.40;0.40;;;22.60;56.70;;;;;;6151617;28;20753;-47
2022/09/24 06:03:25;;;;;;;;;;;22.90;56.70;;;;;;6145056;28;20788;-50
2022/09/24 06:06:28;;;;;;;0.43;0.30;;;22.70;56.70;;;;;;6153423;28;19925;-52
2022/09/24 06:09:29;;;;;;;0.50;0.30;;;22.80;56.60;;;;;;6156386;28;20582;-45
2022/09/24 06:12:34;;;;;;;;;;;22.80;56.70;;;;;;6146365;28;20589;-46
2022/09/24 06:15:35;;;;;;;0.47;0.40;;;22.90;56.80;;;;;;6144014;28;20957;-47
2022/09/24 06:18:38;;;;;;;0.40;0.40;;;22.60;56.50;;;;;;6148790;28;20617;-46
2022/09/24 06:21:40;;;;;;;0.30;0.30;;;22.70;56.50;;;;;;6118740;28;20903;-48
2022/09/24 06:24:42;;;;;;;0.30;0.30;;;22.40;56.30;;;;;;6149297;28;20157;-46
2022/09/24 06:27:43;;;;;;;;;;;22.90;56.60;;;;;;6143623;28;20050;-48
2022/09/24 06:30:45;;;;;;;0.20;0.20;;;22.60;56.40;;;;;;6144800;28;20048;-48
2022/09/24 06:33:46;;;;;;;0.32;0.30;;;22.80;56.40;;;;;;6142737;28;20876;-48
2022/09/24 06:36:52;;;;;;;0.10;0.10;;;22.90;56.40;;;;;;6145989;28;20737;-47
2022/09/24 06:39:54;;;;;;;0.30;0.30;;;22.60;56.10;;;;;;6145821;28;20436;-47
2022/09/24 06:42:55;;;;;;;0.60;0.25;;;23.00;56.40;;;;;;6144235;28;20151;-48
2022/09/24 06:46:02;;;;;;;0.20;0.20;;;23.20;56.40;;;;;;6144187;28;20298;-48
2022/09/24 06:49:03;;;;;;;0.30;0.30;;;22.70;69.70;;;;;;6114424;28;20559;-49
2022/09/24 06:52:05;;;;;;;0.30;0.30;;;22.90;56.20;;;;;;6146841;28;20081;-46
2022/09/24 06:55:08;;;;;;;0.30;0.30;;;22.90;56.10;;;;;;6147312;28;20076;-47
2022/09/24 06:58:11;;;;;;;0.50;0.40;;;23.10;56.10;;;;;;6145445;28;20147;-48
2022/09/24 07:01:15;;;;;;;0.20;0.20;;;23.00;56.00;;;;;;6142902;28;20503;-46
2022/09/24 07:04:17;;;;;;;0.30;0.20;;;23.40;56.20;;;;;;6153377;28;20056;-52
2022/09/24 07:10:36;;;;;;;0.47;0.30;;;22.90;55.80;;;;;;6139440;28;22369;-50
2022/09/24 07:13:38;;;;;;;0.20;0.20;;;23.20;56.00;;;;;;6143297;28;20531;-49
2022/09/24 07:16:39;;;;;;;;;;;22.90;55.80;;;;;;6143858;28;20053;-46
2022/09/24 07:19:41;;;;;;;0.68;0.40;;;22.90;55.90;;;;;;6149854;28;20036;-46
2022/09/24 07:22:43;;;;;;;0.38;0.30;;;22.90;55.70;;;;;;6148446;28;20041;-50
2022/09/24 07:25:44;;;;;;;0.65;0.38;;;22.90;55.70;;;;;;6161397;28;20050;-52
2022/09/24 07:28:46;;;;;;;0.20;0.20;;;22.80;55.60;;;;;;6156392;28;21130;-48
2022/09/24 07:31:50;;;;;;;;;;;23.10;55.70;;;;;;6145696;28;20046;-45
2022/09/24 07:34:53;;;;;;;0.30;0.30;;;23.10;55.80;;;;;;6135352;28;20249;-46
2022/09/24 07:37:57;;;;;;;0.40;0.20;;;23.20;55.80;;;;;;6135292;28;20223;-51
2022/09/24 07:40:59;;;;;;;0.22;0.22;;;23.00;55.60;;;;;;6140423;28;20281;-47
2022/09/24 07:44:01;;;;;;;0.20;0.20;;;22.90;55.70;;;;;;6132473;28;20065;-45
2022/09/24 07:47:02;;;;;;;0.40;0.30;;;23.20;55.90;;;;;;6137200;28;20484;-49
2022/09/24 07:50:05;;;;;;;0.30;0.28;;;23.10;55.80;;;;;;6142571;28;20258;-50
2022/09/24 07:53:08;;;;;;;0.30;0.30;;;23.20;55.90;;;;;;6142475;28;20038;-48
2022/09/24 07:56:10;;;;;;;0.25;0.20;;;23.40;56.00;;;;;;6141526;28;20256;-51
2022/09/24 07:59:11;;;;;;;;;;;23.10;55.90;;;;;;6141866;28;20042;-48
2022/09/24 08:02:14;;;;;;;;;;;23.00;55.90;;;;;;6146842;28;19960;-49
2022/09/24 08:05:19;;;;;;;0.30;0.20;;;23.00;55.80;;;;;;6125477;28;19925;-53
2022/09/24 08:08:22;;;;;;;0.40;0.25;;;23.20;55.90;;;;;;6150879;28;20050;-48
2022/09/24 08:11:24;;;;;;;0.30;0.20;;;22.90;55.70;;;;;;6148504;28;20581;-49
2022/09/24 08:14:25;;;;;;;0.22;0.22;;;23.30;56.00;;;;;;6139683;28;20188;-47
2022/09/24 08:17:26;;;;;;;;;;;23.30;55.90;;;;;;6133730;28;22284;-48
2022/09/24 08:20:28;;;;;;;0.40;0.30;;;23.30;55.90;;;;;;6151958;28;20040;-53
2022/09/24 08:23:31;;;;;;;0.50;0.30;;;23.20;55.80;;;;;;6150024;28;20077;-53
2022/09/24 08:26:32;;;;;;;0.40;0.40;;;23.30;55.80;;;;;;6146754;28;20046;-51
2022/09/24 08:29:34;;;;;;;;;;;23.30;55.70;;;;;;6143512;28;20305;-47
2022/09/24 08:32:35;;;;;;;0.30;0.17;;;23.00;55.60;;;;;;6137202;28;19929;-52
2022/09/24 08:35:38;;;;;;;0.50;0.20;;;23.40;55.70;;;;;;6140901;28;20539;-49
2022/09/24 08:38:44;;;;;;;0.20;0.20;;;23.20;55.50;;;;;;6138200;28;20153;-46
2022/09/24 08:41:57;;;;;;;0.30;0.30;;;23.50;55.70;;;;;;6140363;28;20226;-49
2022/09/24 08:48:21;;;;;;;0.40;0.30;;;23.50;55.50;;;;;;6120249;28;20270;-46
2022/09/24 08:51:23;;;;;;;0.20;0.20;;;23.30;55.40;;;;;;6135790;28;20474;-47
2022/09/24 08:54:28;;;;;;;0.28;0.20;;;23.30;55.40;;;;;;6133997;28;20096;-48
2022/09/24 08:57:34;;;;;;;0.43;0.10;;;23.40;55.40;;;;;;6142459;28;20481;-48
2022/09/24 09:00:43;;;;;;;0.38;0.20;;;23.40;55.20;;;;;;6141906;28;20181;-48
2022/09/24 09:03:48;;;;;;;0.30;0.30;;;23.10;54.90;;;;;;6148029;28;20968;-48
2022/09/24 09:07:03;;;;;;;0.30;0.30;;;23.40;54.90;;;;;;6137117;28;20119;-52
2022/09/24 09:10:10;;;;;;;0.22;0.20;;;23.40;54.70;;;;;;6155159;28;20156;-53
2022/09/24 09:13:18;;;;;;;0.20;0.20;;;23.20;54.50;;;;;;6140769;28;20034;-53
2022/09/24 09:16:25;;;;;;;0.40;0.28;;;23.30;54.40;;;;;;6153560;28;20960;-51
2022/09/24 09:19:32;;;;;;;0.20;0.20;;;23.10;54.20;;;;;;6155001;28;20041;-48
2022/09/24 09:22:40;;;;;;;0.70;0.30;;;23.50;54.20;;;;;;6158014;28;20042;-50
2022/09/24 09:25:50;;;;;;;0.20;0.20;;;23.40;54.00;;;;;;6152961;28;20130;-52
2022/09/24 09:28:55;;;;;;;0.40;0.30;;;23.30;53.70;;;;;;6140333;28;20995;-50
2022/09/24 09:32:09;;;;;;;0.28;0.20;;;23.50;53.70;;;;;;6131476;28;20052;-46
2022/09/24 09:35:20;;;;;;;0.20;0.20;;;23.20;53.20;;;;;;6134633;28;20044;-49
2022/09/24 09:38:28;;;;;;;0.20;0.10;;;23.40;53.20;;;;;;6154757;28;21035;-51
2022/09/24 09:41:39;;;;;;;;;;;23.20;53.00;;;;;;6148360;28;20177;-48
2022/09/24 09:44:43;;;;;;;0.20;0.20;;;23.50;53.10;;;;;;6126145;28;20103;-48
2022/09/24 09:47:48;;;;;;;0.20;0.20;;;23.20;52.80;;;;;;6124383;28;20046;-46
2022/09/24 09:50:52;;;;;;;0.20;0.20;;;23.20;52.70;;;;;;6127424;28;20046;-51
2022/09/24 09:53:55;;;;;;;0.52;0.20;;;23.10;52.50;;;;;;6156136;28;20059;-50
2022/09/24 09:56:57;;;;;;;0.17;0.17;;;23.40;52.50;;;;;;6134157;28;20470;-47
2022/09/24 10:00:00;;;;;;;0.20;0.20;;;23.50;52.50;;;;;;6143232;28;20879;-48
2022/09/24 10:03:03;;;;;;;0.20;0.20;;;23.20;52.20;;;;;;6145909;28;21092;-47
2022/09/24 10:06:06;;;;;;;0.15;0.15;;;23.70;52.40;;;;;;6140391;28;20452;-47
2022/09/24 10:09:12;;;;;;;0.10;0.10;;;23.40;52.20;;;;;;6146290;28;20248;-49
2022/09/24 10:12:16;;;;;;;0.17;0.17;;;23.50;52.00;;;;;;6141870;28;20038;-48
2022/09/24 10:15:20;;;;;;;0.20;0.20;;;23.70;52.00;;;;;;6127729;28;20065;-46
2022/09/24 10:18:28;;;;;;;0.20;0.20;;;23.30;51.60;;;;;;6127689;28;20578;-48
2022/09/24 10:21:33;;;;;;;0.20;0.10;;;23.60;51.50;;;;;;6126140;28;20045;-47
2022/09/24 10:24:36;;;;;;;0.17;0.17;;;23.50;51.30;;;;;;6146151;28;20473;-48
2022/09/24 10:27:38;;;;;;;0.10;0.10;;;23.10;50.90;;;;;;6146089;28;20050;-50
2022/09/24 10:30:48;;;;;;;0.10;0.10;;;23.70;51.10;;;;;;6144783;28;20548;-48
2022/09/24 10:33:53;;;;;;;0.30;0.30;;;23.50;50.80;;;;;;6149581;28;20386;-49
2022/09/24 10:36:59;;;;;;;0.10;0.10;;;23.70;50.90;;;;;;6145163;28;20327;-51
2022/09/24 10:40:10;;;;;;;0.43;0.20;;;23.40;50.60;;;;;;6145500;28;20765;-50
2022/09/24 10:43:18;;;;;;;0.47;0.20;;;23.30;50.40;;;;;;6127713;28;20294;-46
2022/09/24 10:46:40;;;;;;;0.20;0.10;;;23.30;50.20;;;;;;6123515;28;20821;-46
2022/09/24 10:49:54;;;;;;;0.13;0.10;;;23.40;49.90;;;;;;6143524;28;20038;-46
2022/09/24 10:52:59;;;;;;;0.30;0.20;;;23.70;49.90;;;;;;6143463;28;20753;-47
2022/09/24 10:56:06;;;;;;;0.40;0.20;;;23.80;49.80;;;;;;6142832;28;20058;-46
2022/09/24 10:59:26;;;;;;;0.20;0.10;;;23.60;49.50;;;;;;6143516;28;20219;-48
2022/09/24 11:02:54;;;;;;;0.22;0.10;;;23.50;49.00;;;;;;6146677;28;20424;-48
2022/09/24 11:06:01;;;;;;;0.13;0.13;;;23.60;48.70;;;;;;6127739;28;20086;-46
2022/09/24 11:09:14;;;;;;;0.15;0.13;;;23.60;48.60;;;;;;6144333;28;20056;-46
2022/09/24 11:12:29;;;;;;;0.20;0.10;;;23.00;48.00;;;;;;6142273;28;20374;-48
2022/09/24 11:15:52;;;;;;;0.20;0.20;;;23.40;47.90;;;;;;6145564;28;21713;-48
2022/09/24 11:18:59;;;;;;;0.10;0.10;;;23.30;47.60;;;;;;6141592;28;20046;-51
2022/09/24 11:22:12;;;;;;;0.20;0.10;;;23.40;47.50;;;;;;6143998;28;20038;-51
2022/09/24 11:25:25;;;;;;;0.20;0.10;;;23.80;47.40;;;;;;6129906;28;20059;-49
2022/09/24 11:28:44;;;;;;;0.10;0.10;;;23.70;47.10;;;;;;6123000;28;20291;-46
2022/09/24 11:31:55;;;;;;;0.10;0.10;;;23.50;46.70;;;;;;6135969;28;20836;-48
2022/09/24 11:35:06;;;;;;;0.10;0.10;;;23.70;46.50;;;;;;6136971;28;20421;-49
2022/09/24 11:38:11;;;;;;;0.22;0.10;;;23.70;46.10;;;;;;6135524;28;20046;-48
2022/09/24 11:41:24;;;;;;;0.13;0.13;;;23.50;45.70;;;;;;6138416;28;20042;-49
2022/09/24 11:45:01;;;;;;;0.17;0.10;;;23.80;45.30;;;;;;6135130;28;20164;-49
2022/09/24 11:48:18;;;;;;;0.35;0.15;;;23.90;44.90;;;;;;6127121;28;20425;-49
2022/09/24 11:51:34;;;;;;;0.28;0.20;;;23.80;44.70;;;;;;6141100;28;20222;-47
2022/09/24 11:54:42;;;;;;;0.20;0.20;;;23.70;44.40;;;;;;6125354;28;20519;-49
2022/09/24 11:57:49;;;;;;;0.30;0.13;;;23.70;44.30;;;;;;6138650;28;20336;-48
2022/09/24 12:00:56;;;;;;;0.10;0.10;;;23.50;44.00;;;;;;6136680;28;20072;-47
2022/09/24 12:04:03;;;;;;;0.20;0.10;;;23.70;43.90;;;;;;6135007;28;20054;-46
2022/09/24 12:07:12;;;;;;;0.17;0.17;;;23.90;43.80;;;;;;6120082;28;20093;-49
2022/09/24 12:10:25;;;;;;;0.10;0.10;;;23.80;43.60;;;;;;6133782;28;20285;-48
2022/09/24 12:13:31;;;;;;;0.28;0.20;;;23.80;43.40;;;;;;6120029;28;20049;-46
2022/09/24 12:16:37;;;;;;;0.20;0.20;;;23.80;43.30;;;;;;6119678;28;20046;-49
2022/09/24 12:19:49;;;;;;;0.30;0.10;;;23.90;43.30;;;;;;6135575;28;20046;-48
2022/09/24 12:22:59;;;;;;;0.10;0.10;;;23.70;42.90;;;;;;6134184;28;20299;-48
2022/09/24 12:26:04;;;;;;;0.10;0.10;;;23.80;42.80;;;;;;6131524;28;20279;-48
2022/09/24 12:32:55;;;;;;;0.20;0.20;;;23.90;42.50;;;;;;6130581;28;20479;-47
2022/09/24 12:36:04;;;;;;;0.13;0.10;;;23.90;42.50;;;;;;6131392;28;20049;-48
2022/09/24 12:39:09;;;;;;;0.20;0.20;;;23.50;42.00;;;;;;6114401;28;20262;-46
2022/09/24 12:42:13;;;;;;;0.10;0.10;;;23.90;42.10;;;;;;6114301;28;20328;-46
2022/09/24 12:45:21;;;;;;;0.10;0.10;;;23.80;42.00;;;;;;6141890;28;20504;-49
2022/09/24 12:48:24;;;;;;;0.50;0.20;;;23.90;41.80;;;;;;6112343;28;20986;-46
2022/09/24 12:51:36;;;;;;;0.20;0.20;;;23.90;41.60;;;;;;6135318;28;22066;-49
2022/09/24 12:54:38;;;;;;;0.20;0.20;;;23.70;41.40;;;;;;6131635;28;20609;-47
2022/09/24 12:57:41;;;;;;;0.50;0.20;;;23.90;41.40;;;;;;6137211;28;20334;-48
2022/09/24 13:00:46;;;;;;;0.10;0.10;;;24.00;41.40;;;;;;6136720;28;20163;-48
2022/09/24 13:04:01;;;;;;;0.65;0.30;;;23.60;41.00;;;;;;6099906;28;20247;-47
2022/09/24 13:07:32;;;;;;;0.20;0.10;;;23.50;41.40;;;;;;6138316;28;20854;-48
2022/09/24 13:10:35;;;;;;;0.20;0.17;;;23.70;40.80;;;;;;6120371;28;20050;-48
2022/09/24 13:13:39;;;;;;;0.20;0.20;;;23.80;41.00;;;;;;6099958;28;20070;-48
2022/09/24 13:16:44;;;;;;;0.10;0.10;;;23.60;40.80;;;;;;6129472;28;20753;-48
2022/09/24 13:19:48;;;;;;;0.73;0.10;;;24.20;41.00;;;;;;6134075;28;20524;-49
2022/09/24 13:22:56;;;;;;;0.20;0.10;;;24.00;40.90;;;;;;6128935;28;20061;-49
2022/09/24 13:26:01;;;;;;;0.10;0.10;;;23.70;40.80;;;;;;6097315;28;20764;-46
2022/09/24 13:29:04;;;;;;;0.30;0.20;;;23.90;40.90;;;;;;6122558;28;20168;-48
2022/09/24 13:32:17;;;;;;;0.13;0.13;;;24.00;41.00;;;;;;6124127;28;20145;-47
2022/09/24 13:35:24;;;;;;;0.20;0.20;;;24.10;41.00;;;;;;6136411;28;20157;-51
2022/09/24 13:38:30;;;;;;;0.30;0.10;;;24.00;41.00;;;;;;6106643;28;20276;-47
2022/09/24 13:41:41;;;;;;;0.20;0.20;;;24.10;41.00;;;;;;6130894;28;20384;-50
2022/09/24 13:44:46;;;;;;;;;;;24.00;41.00;;;;;;6131850;28;20049;-47
2022/09/24 13:47:52;;;;;;;0.30;0.30;;;23.90;41.00;;;;;;6131896;28;20732;-48
2022/09/24 13:50:54;;;;;;;0.40;0.20;;;24.00;41.20;;;;;;6136298;28;20046;-49
2022/09/24 13:54:05;;;;;;;0.20;0.20;;;24.20;41.30;;;;;;6135445;28;20385;-48
2022/09/24 13:57:18;;;;;;;0.30;0.10;;;24.10;41.20;;;;;;6136656;28;20045;-48
2022/09/24 14:00:25;;;;;;;0.20;0.20;;;24.10;41.20;;;;;;6138985;28;20051;-47
2022/09/24 14:03:31;;;;;;;0.10;0.10;;;24.00;41.20;;;;;;6118271;28;20046;-48
2022/09/24 14:06:36;;;;;;;0.50;0.30;;;24.10;41.20;;;;;;6113979;28;20049;-50
2022/09/24 14:09:38;;;;;;;0.43;0.20;;;23.80;41.00;;;;;;6105113;28;20370;-49
2022/09/24 14:12:40;;;;;;;0.28;0.20;;;24.00;41.10;;;;;;6138464;28;20158;-49
2022/09/24 14:15:51;;;;;;;0.60;0.30;;;24.10;41.10;;;;;;6134349;28;20641;-48
2022/09/24 14:19:04;;;;;;;0.20;0.20;;;24.10;41.10;;;;;;6111804;28;20326;-49
2022/09/24 14:22:13;;;;;;;0.20;0.20;;;24.20;41.20;;;;;;6131166;28;20592;-50
2022/09/24 14:25:18;;;;;;;0.13;0.10;;;24.10;41.20;;;;;;6136954;28;20104;-47
2022/09/24 14:28:21;;;;;;;0.30;0.20;;;23.80;41.20;;;;;;6132834;28;20072;-49
2022/09/24 14:31:23;;;;;;;0.30;0.20;;;24.20;41.50;;;;;;6134739;28;20235;-48
2022/09/24 14:34:27;;;;;;;0.30;0.25;;;24.10;41.40;;;;;;6134069;28;20266;-47
2022/09/24 14:37:32;;;;;;;0.47;0.22;;;24.20;41.50;;;;;;6133873;28;20046;-46
2022/09/24 14:40:42;;;;;;;0.20;0.10;;;24.00;41.30;;;;;;6112459;28;20876;-48
2022/09/24 14:43:47;;;;;;;0.30;0.20;;;24.10;41.30;;;;;;6116947;28;20475;-48
2022/09/24 14:46:51;;;;;;;0.45;0.20;;;23.90;41.20;;;;;;6132996;28;20253;-48
2022/09/24 14:49:53;;;;;;;0.60;0.30;;;24.10;41.20;;;;;;6117352;28;20457;-50
2022/09/24 14:52:56;;;;;;;0.40;0.20;;;23.80;41.10;;;;;;6135015;28;20346;-46
2022/09/24 14:56:17;;;;;;;0.30;0.20;;;24.20;41.30;;;;;;6116684;28;20374;-45
2022/09/24 14:59:29;;;;;;;0.57;0.30;;;24.10;41.20;;;;;;6134654;28;20053;-49
2022/09/24 15:02:33;;;;;;;0.75;0.10;;;24.20;41.20;;;;;;6113155;28;20177;-46
2022/09/24 15:05:36;;;;;;;0.30;0.25;;;23.90;41.10;;;;;;6134230;28;20057;-47
2022/09/24 15:08:38;;;;;;;0.40;0.20;;;24.10;41.10;;;;;;6128607;28;20389;-50
2022/09/24 15:11:41;;;;;;;0.10;0.10;;;24.20;41.20;;;;;;6134102;28;20053;-46
2022/09/24 15:14:54;;;;;;;0.20;0.20;;;24.10;41.00;;;;;;6130499;28;20048;-46
2022/09/24 15:17:56;;;;;;;0.30;0.20;;;24.00;40.90;;;;;;6118443;28;20708;-49
2022/09/24 15:21:04;;;;;;;0.30;0.20;;;24.20;41.10;;;;;;6135641;28;20759;-46
2022/09/24 15:24:06;;;;;;;0.20;0.17;;;24.20;41.00;;;;;;6138335;28;21008;-47
2022/09/24 15:27:17;;;;;;;0.52;0.20;;;24.20;41.00;;;;;;6140382;28;20077;-48
2022/09/24 15:30:20;;;;;;;1.23;0.20;;;24.20;41.00;;;;;;6135167;28;20049;-46
2022/09/24 15:33:22;;;;;;;0.50;0.30;;;24.30;41.00;;;;;;6110254;28;20077;-49
2022/09/24 15:36:24;;;;;;;0.40;0.38;;;24.30;41.00;;;;;;6120113;28;20211;-47
2022/09/24 15:39:27;;;;;;;0.63;0.22;;;24.20;41.00;;;;;;6138302;28;20050;-48
2022/09/24 15:42:29;;;;;;;0.30;0.20;;;24.20;41.00;;;;;;6134569;28;20042;-50
2022/09/24 15:45:31;;;;;;;0.40;0.20;;;24.20;41.00;;;;;;6138827;28;20049;-48
2022/09/24 15:48:32;;;;;;;0.40;0.20;;;24.20;41.00;;;;;;6144165;28;20384;-46
2022/09/24 15:51:34;;;;;;;0.30;0.20;;;24.20;41.00;;;;;;6142614;28;20489;-46
2022/09/24 15:54:35;;;;;;;0.20;0.20;;;24.30;41.20;;;;;;6136222;28;20056;-49
2022/09/24 15:57:37;;;;;;;0.45;0.30;;;24.30;41.10;;;;;;6138573;28;20073;-46
2022/09/24 16:00:41;;;;;;;0.10;0.10;;;24.30;41.10;;;;;;6135046;28;20064;-46
2022/09/24 16:03:43;;;;;;;0.20;0.20;;;24.20;41.10;;;;;;6118187;28;20157;-46
2022/09/24 16:06:44;;;;;;;0.28;0.25;;;24.30;41.20;;;;;;6135076;28;20872;-45
2022/09/24 16:09:46;;;;;;;0.52;0.22;;;24.30;41.30;;;;;;6133747;28;20466;-49
2022/09/24 16:12:48;;;;;;;0.40;0.10;;;24.20;41.30;;;;;;6135979;28;20481;-46
2022/09/24 16:15:49;;;;;;;0.25;0.20;;;24.30;41.40;;;;;;6139845;28;20637;-49
2022/09/24 16:18:52;;;;;;;0.60;0.30;;;24.30;41.40;;;;;;6136123;28;20049;-46
2022/09/24 16:21:53;;;;;;;0.35;0.28;;;24.10;41.30;;;;;;6119542;28;20045;-47
2022/09/24 16:24:55;;;;;;;0.60;0.30;;;24.40;41.50;;;;;;6138597;28;20157;-46
2022/09/24 16:27:57;;;;;;;0.30;0.25;;;24.10;41.40;;;;;;6136430;28;20509;-50
2022/09/24 16:31:03;;;;;;;0.30;0.20;;;24.10;41.40;;;;;;6135906;28;21319;-45